createdAt,value
2018-12-14T00:00:16.007Z,83.47
2018-12-14T00:02:44.403Z,83.59
2018-12-14T00:05:12.987Z,82.76
2018-12-14T00:07:41.134Z,83.48
2018-12-14T00:10:09.806Z,83.45
2018-12-14T00:12:38.119Z,82.55
2018-12-14T00:15:07.534Z,82.71
2018-12-14T00:17:35.719Z,82.75
2018-12-14T00:20:07.003Z,82.10
2018-12-14T00:22:35.083Z,82.41
2018-12-14T00:25:04.092Z,82.55
2018-12-14T00:27:32.296Z,82.74
2018-12-14T00:30:00.465Z,83.05
2018-12-14T00:32:28.992Z,83.01
2018-12-14T00:34:57.107Z,82.39
2018-12-14T00:37:25.223Z,82.38
2018-12-14T00:39:53.414Z,82.60
2018-12-14T00:42:21.684Z,82.95
2018-12-14T00:44:49.785Z,82.91
2018-12-14T00:47:18.122Z,83.37
2018-12-14T00:49:46.268Z,83.04
2018-12-14T00:52:14.390Z,82.94
2018-12-14T00:54:42.563Z,83.01
2018-12-14T00:57:10.687Z,82.68
2018-12-14T00:59:38.794Z,81.95
2018-12-14T01:02:11.614Z,82.72
2018-12-14T01:04:39.782Z,81.79
2018-12-14T01:07:07.920Z,82.81
2018-12-14T01:09:36.164Z,82.33
2018-12-14T01:12:04.593Z,82.45
2018-12-14T01:14:32.787Z,81.60
2018-12-14T01:17:01.086Z,82.37
2018-12-14T01:19:29.248Z,82.74
2018-12-14T01:21:57.376Z,82.10
2018-12-14T01:24:25.518Z,81.94
2018-12-14T01:26:53.950Z,82.68
2018-12-14T01:29:22.104Z,81.98
2018-12-14T01:31:50.403Z,82.60
2018-12-14T01:34:18.519Z,82.10
2018-12-14T01:36:46.872Z,82.39
2018-12-14T01:39:15.166Z,82.41
2018-12-14T01:41:43.485Z,82.21
2018-12-14T01:44:11.663Z,82.64
2018-12-14T01:46:39.762Z,82.69
2018-12-14T01:49:08.045Z,82.42
2018-12-14T01:51:36.132Z,81.47
2018-12-14T01:54:04.515Z,81.75
2018-12-14T01:56:32.819Z,81.96
2018-12-14T01:59:01.168Z,81.79
2018-12-14T02:01:29.294Z,82.67
2018-12-14T02:03:57.589Z,82.40
2018-12-14T02:06:25.843Z,82.13
2018-12-14T02:08:54.163Z,82.91
2018-12-14T02:11:22.293Z,82.02
2018-12-14T02:13:50.553Z,82.52
2018-12-14T02:16:18.638Z,82.39
2018-12-14T02:18:46.962Z,82.16
2018-12-14T02:21:15.095Z,82.89
2018-12-14T02:23:43.339Z,83.13
2018-12-14T02:26:11.435Z,82.55
2018-12-14T02:28:39.839Z,82.22
2018-12-14T02:31:08.010Z,81.52
2018-12-14T02:33:36.206Z,81.35
2018-12-14T02:36:04.322Z,81.59
2018-12-14T02:38:32.665Z,81.96
2018-12-14T02:41:00.764Z,82.08
2018-12-14T02:43:28.899Z,82.58
2018-12-14T02:45:57.043Z,82.98
2018-12-14T02:48:25.288Z,82.77
2018-12-14T02:50:53.414Z,82.38
2018-12-14T02:53:21.792Z,83.00
2018-12-14T02:55:49.877Z,82.79
2018-12-14T02:58:17.931Z,82.58
2018-12-14T03:00:46.065Z,82.90
2018-12-14T03:03:14.341Z,83.04
2018-12-14T03:05:42.688Z,82.85
2018-12-14T03:08:10.960Z,82.30
2018-12-14T03:10:39.162Z,82.88
2018-12-14T03:13:07.442Z,81.22
2018-12-14T03:15:35.678Z,81.52
2018-12-14T03:18:04.028Z,81.97
2018-12-14T03:20:32.360Z,82.29
2018-12-14T03:23:00.596Z,82.19
2018-12-14T03:25:28.920Z,82.25
2018-12-14T03:27:57.291Z,82.32
2018-12-14T03:30:25.604Z,82.67
2018-12-14T03:32:53.901Z,81.96
2018-12-14T03:35:22.075Z,81.44
2018-12-14T03:37:50.268Z,81.83
2018-12-14T03:40:18.584Z,81.68
2018-12-14T03:42:47.403Z,81.26
2018-12-14T03:45:15.721Z,81.57
2018-12-14T03:47:43.832Z,81.74
2018-12-14T03:50:12.274Z,82.22
2018-12-14T03:52:40.403Z,81.45
2018-12-14T03:55:08.509Z,81.41
2018-12-14T03:57:36.703Z,82.13
2018-12-14T04:00:09.316Z,81.60
2018-12-14T04:02:37.606Z,81.62
2018-12-14T04:05:06.291Z,81.29
2018-12-14T04:07:34.450Z,82.04
2018-12-14T04:10:03.622Z,81.03
2018-12-14T04:12:31.756Z,81.92
2018-12-14T04:15:00.011Z,81.92
2018-12-14T04:17:28.112Z,81.26
2018-12-14T04:19:56.395Z,81.18
2018-12-14T04:22:24.590Z,81.43
2018-12-14T04:24:52.740Z,82.17
2018-12-14T04:27:20.961Z,81.79
2018-12-14T04:29:49.115Z,82.41
2018-12-14T04:32:17.256Z,81.46
2018-12-14T04:34:45.512Z,80.95
2018-12-14T04:37:13.631Z,81.10
2018-12-14T04:39:41.793Z,81.58
2018-12-14T04:42:10.133Z,80.85
2018-12-14T04:44:38.415Z,80.52
2018-12-14T04:47:07.369Z,80.29
2018-12-14T04:49:36.093Z,80.35
2018-12-14T04:52:08.805Z,81.11
2018-12-14T04:54:37.126Z,80.92
2018-12-14T04:57:05.532Z,80.19
2018-12-14T04:59:33.698Z,79.91
2018-12-14T05:02:02.187Z,80.54
2018-12-14T05:04:30.549Z,81.14
2018-12-14T05:06:58.708Z,81.15
2018-12-14T05:09:26.991Z,81.38
2018-12-14T05:11:55.193Z,80.58
2018-12-14T05:14:23.548Z,80.56
2018-12-14T05:16:51.866Z,80.97
2018-12-14T05:19:19.933Z,80.52
2018-12-14T05:21:48.301Z,80.60
2018-12-14T05:24:16.695Z,81.10
2018-12-14T05:26:45.064Z,81.60
2018-12-14T05:29:13.171Z,81.57
2018-12-14T05:31:41.468Z,81.49
2018-12-14T05:34:09.601Z,81.25
2018-12-14T05:36:37.820Z,81.43
2018-12-14T05:39:06.637Z,81.45
2018-12-14T05:41:35.032Z,82.07
2018-12-14T05:44:03.272Z,80.92
2018-12-14T05:46:31.494Z,81.47
2018-12-14T05:48:59.612Z,81.49
2018-12-14T05:51:27.736Z,82.11
2018-12-14T05:53:55.922Z,81.67
2018-12-14T05:56:25.100Z,82.02
2018-12-14T05:58:53.266Z,82.73
2018-12-14T06:01:21.656Z,81.82
2018-12-14T06:06:58.844Z,81.08
2018-12-14T06:09:26.982Z,81.60
2018-12-14T06:11:55.152Z,81.30
2018-12-14T06:14:23.988Z,81.15
2018-12-14T06:16:52.314Z,81.08
2018-12-14T06:19:20.426Z,80.71
2018-12-14T06:21:48.545Z,81.23
2018-12-14T06:24:16.939Z,81.15
2018-12-14T06:26:45.204Z,81.32
2018-12-14T06:29:13.306Z,80.42
2018-12-14T06:31:41.431Z,80.34
2018-12-14T06:34:09.554Z,80.15
2018-12-14T06:36:37.690Z,80.41
2018-12-14T06:39:06.965Z,80.93
2018-12-14T06:41:35.639Z,80.80
2018-12-14T06:44:03.886Z,80.26
2018-12-14T06:46:31.992Z,80.08
2018-12-14T06:49:00.098Z,80.58
2018-12-14T06:51:28.270Z,79.72
2018-12-14T06:53:56.627Z,79.84
2018-12-14T06:56:25.024Z,80.13
2018-12-14T06:58:53.358Z,80.99
2018-12-14T07:01:21.459Z,80.86
2018-12-14T07:03:49.785Z,81.17
2018-12-14T07:06:17.940Z,80.81
2018-12-14T07:08:46.389Z,80.95
2018-12-14T07:11:14.760Z,81.30
2018-12-14T07:13:42.910Z,81.23
2018-12-14T07:16:11.282Z,81.40
2018-12-14T07:18:39.649Z,81.43
2018-12-14T07:21:07.895Z,81.08
2018-12-14T07:23:36.149Z,80.84
2018-12-14T07:26:04.349Z,80.92
2018-12-14T07:28:33.195Z,81.46
2018-12-14T07:31:01.313Z,80.72
2018-12-14T07:33:29.503Z,81.46
2018-12-14T07:35:57.740Z,80.90
2018-12-14T07:38:25.902Z,81.14
2018-12-14T07:40:54.755Z,80.67
2018-12-14T07:43:28.319Z,81.10
2018-12-14T07:45:53.091Z,81.10
2018-12-14T07:48:21.274Z,81.00
2018-12-14T07:50:49.471Z,80.85
2018-12-14T07:53:17.543Z,81.09
2018-12-14T07:55:45.734Z,81.23
2018-12-14T07:58:13.966Z,80.83
2018-12-14T08:00:42.930Z,80.12
2018-12-14T08:03:11.909Z,80.12
2018-12-14T08:05:40.918Z,80.39
2018-12-14T08:08:10.517Z,80.67
2018-12-14T08:10:39.552Z,80.11
2018-12-14T08:13:08.673Z,79.49
2018-12-14T08:15:37.261Z,79.72
2018-12-14T08:18:06.180Z,80.36
2018-12-14T08:20:51.686Z,79.92
2018-12-14T08:23:20.180Z,79.20
2018-12-14T08:25:51.634Z,79.47
2018-12-14T08:28:20.396Z,79.18
2018-12-14T08:30:48.603Z,79.82
2018-12-14T08:33:16.959Z,79.77
2018-12-14T08:35:45.219Z,78.76
2018-12-14T08:38:13.599Z,79.24
2018-12-14T08:40:41.934Z,78.94
2018-12-14T08:43:10.393Z,78.68
2018-12-14T08:45:38.491Z,78.48
2018-12-14T08:48:07.379Z,78.67
2018-12-14T08:50:35.584Z,78.40
2018-12-14T08:53:05.145Z,78.05
2018-12-14T08:55:33.343Z,77.95
2018-12-14T08:58:01.641Z,78.12
2018-12-14T09:00:29.934Z,77.29
2018-12-14T09:02:58.397Z,78.06
2018-12-14T09:05:27.308Z,78.46
2018-12-14T09:07:55.546Z,78.97
2018-12-14T09:10:23.893Z,78.82
2018-12-14T09:12:52.122Z,78.59
2018-12-14T09:15:20.442Z,78.87
2018-12-14T09:17:48.784Z,78.72
2018-12-14T09:20:17.422Z,78.34
2018-12-14T09:22:46.841Z,78.10
2018-12-14T09:25:14.971Z,78.39
2018-12-14T09:27:43.079Z,77.68
2018-12-14T09:30:11.497Z,77.54
2018-12-14T09:32:39.870Z,77.62
2018-12-14T09:35:08.241Z,77.93
2018-12-14T09:37:36.377Z,78.58
2018-12-14T09:40:05.552Z,78.17
2018-12-14T09:42:33.714Z,77.43
2018-12-14T09:45:02.029Z,77.34
2018-12-14T09:47:30.200Z,76.55
2018-12-14T09:49:58.349Z,76.14
2018-12-14T09:52:26.482Z,76.37
2018-12-14T09:54:54.766Z,76.06
2018-12-14T09:57:23.240Z,75.56
2018-12-14T09:59:51.519Z,75.40
2018-12-14T10:02:19.683Z,75.89
2018-12-14T10:04:48.014Z,75.94
2018-12-14T10:07:16.136Z,75.94
2018-12-14T10:09:44.616Z,76.46
2018-12-14T10:12:12.803Z,75.88
2018-12-14T10:15:59.576Z,75.29
2018-12-14T10:18:27.840Z,73.58
2018-12-14T10:20:56.011Z,72.95
2018-12-14T10:23:24.261Z,73.51
2018-12-14T10:25:53.157Z,73.95
2018-12-14T10:28:21.345Z,73.50
2018-12-14T10:30:49.573Z,73.44
2018-12-14T10:33:17.796Z,73.52
2018-12-14T10:35:46.219Z,74.65
2018-12-14T10:38:15.037Z,74.66
2018-12-14T10:40:43.258Z,74.36
2018-12-14T10:43:11.512Z,74.93
2018-12-14T10:45:40.139Z,74.70
2018-12-14T10:48:08.273Z,74.94
2018-12-14T10:50:39.685Z,75.03
2018-12-14T10:53:12.411Z,74.63
2018-12-14T10:55:40.986Z,74.39
2018-12-14T10:58:09.303Z,75.06
2018-12-14T11:00:43.579Z,74.71
2018-12-14T11:03:11.864Z,75.22
2018-12-14T11:05:40.862Z,74.37
2018-12-14T11:08:09.031Z,74.95
2018-12-14T11:10:37.186Z,75.03
2018-12-14T11:13:05.373Z,74.41
2018-12-14T11:15:41.193Z,74.63
2018-12-14T11:18:09.478Z,74.01
2018-12-14T11:20:37.849Z,74.08
2018-12-14T11:23:06.009Z,73.13
2018-12-14T11:25:34.321Z,73.46
2018-12-14T11:28:02.507Z,73.53
2018-12-14T11:30:31.396Z,73.49
2018-12-14T11:32:59.617Z,74.32
2018-12-14T11:35:27.830Z,73.95
2018-12-14T11:37:56.001Z,73.75
2018-12-14T11:40:24.309Z,72.96
2018-12-14T11:42:53.133Z,73.69
2018-12-14T11:45:21.363Z,73.59
2018-12-14T11:47:49.507Z,74.80
2018-12-14T11:50:17.668Z,74.91
2018-12-14T11:52:45.966Z,74.94
2018-12-14T11:55:14.137Z,74.17
2018-12-14T11:57:42.308Z,74.82
2018-12-14T12:00:14.085Z,74.79
2018-12-14T12:02:43.269Z,74.86
2018-12-14T12:05:11.727Z,74.16
2018-12-14T12:07:41.085Z,73.80
2018-12-14T12:10:10.627Z,73.65
2018-12-14T12:12:39.162Z,73.47
2018-12-14T12:15:07.543Z,73.87
2018-12-14T12:17:37.307Z,73.85
2018-12-14T12:20:07.101Z,74.49
2018-12-14T12:22:35.232Z,73.85
2018-12-14T12:25:03.698Z,74.75
2018-12-14T12:27:31.813Z,74.41
2018-12-14T12:29:59.908Z,74.32
2018-12-14T12:32:28.314Z,73.95
2018-12-14T12:34:56.848Z,74.45
2018-12-14T12:40:08.003Z,73.12
2018-12-14T12:42:36.145Z,72.93
2018-12-14T12:45:05.220Z,72.73
2018-12-14T12:47:33.327Z,72.96
2018-12-14T12:50:01.604Z,73.91
2018-12-14T12:52:29.771Z,73.26
2018-12-14T12:54:57.971Z,73.38
2018-12-14T12:57:26.471Z,73.39
2018-12-14T12:59:54.705Z,73.47
2018-12-14T13:02:22.834Z,72.89
2018-12-14T13:04:51.672Z,73.84
2018-12-14T13:07:19.804Z,73.93
2018-12-14T13:09:47.920Z,73.65
2018-12-14T13:12:16.686Z,74.15
2018-12-14T13:14:44.803Z,74.14
2018-12-14T13:17:12.944Z,73.81
2018-12-14T13:19:41.112Z,73.97
2018-12-14T13:22:09.287Z,73.77
2018-12-14T13:24:37.475Z,73.34
2018-12-14T13:27:05.575Z,73.46
2018-12-14T13:29:33.869Z,72.78
2018-12-14T13:32:01.997Z,74.06
2018-12-14T13:34:30.244Z,74.29
2018-12-14T13:36:58.449Z,74.68
2018-12-14T13:39:26.589Z,73.97
2018-12-14T13:41:54.718Z,74.15
2018-12-14T13:44:22.885Z,74.51
2018-12-14T13:46:51.178Z,74.72
2018-12-14T13:49:19.295Z,75.25
2018-12-14T13:51:47.606Z,74.96
2018-12-14T13:54:15.849Z,75.31
2018-12-14T13:56:44.398Z,75.19
2018-12-14T13:59:12.551Z,75.42
2018-12-14T14:01:40.873Z,75.05
2018-12-14T14:04:09.055Z,74.62
2018-12-14T14:06:37.580Z,74.68
2018-12-14T14:09:06.831Z,74.90
2018-12-14T14:11:35.083Z,74.45
2018-12-14T14:14:03.428Z,74.86
2018-12-14T14:16:31.645Z,75.53
2018-12-14T14:18:59.847Z,75.93
2018-12-14T14:21:33.696Z,75.69
2018-12-14T14:24:01.957Z,76.62
2018-12-14T14:26:30.304Z,76.15
2018-12-14T14:28:58.561Z,75.76
2018-12-14T14:31:26.779Z,76.53
2018-12-14T14:33:54.949Z,76.83
2018-12-14T14:36:23.097Z,76.56
2018-12-14T14:38:51.279Z,76.92
2018-12-14T14:41:19.430Z,76.84
2018-12-14T14:43:47.626Z,75.80
2018-12-14T14:46:15.776Z,76.79
2018-12-14T14:48:44.050Z,76.64
2018-12-14T14:51:12.939Z,76.00
2018-12-14T14:53:41.147Z,75.99
2018-12-14T14:56:09.288Z,76.46
2018-12-14T14:58:37.454Z,75.99
2018-12-14T15:01:05.736Z,76.90
2018-12-14T15:03:33.936Z,76.47
2018-12-14T15:06:02.236Z,76.40
2018-12-14T15:08:30.390Z,76.69
2018-12-14T15:10:58.545Z,77.49
2018-12-14T15:13:29.709Z,77.61
2018-12-14T15:15:58.360Z,77.03
2018-12-14T15:18:26.594Z,76.94
2018-12-14T15:20:54.780Z,77.36
2018-12-14T15:23:23.263Z,77.00
2018-12-14T15:25:51.425Z,77.59
2018-12-14T15:28:19.654Z,77.99
2018-12-14T15:30:47.773Z,77.13
2018-12-14T15:33:15.991Z,77.29
2018-12-14T15:35:44.096Z,77.73
2018-12-14T15:38:12.303Z,78.08
2018-12-14T15:40:40.716Z,78.06
2018-12-14T15:43:08.951Z,77.85
2018-12-14T15:45:37.112Z,77.99
2018-12-14T15:48:05.621Z,78.18
2018-12-14T15:50:33.955Z,78.29
2018-12-14T15:53:02.219Z,77.92
2018-12-14T15:55:30.485Z,77.79
2018-12-14T15:57:58.775Z,77.17
2018-12-14T16:00:27.275Z,78.06
2018-12-14T16:02:56.291Z,78.81
2018-12-14T16:05:24.669Z,77.90
2018-12-14T16:07:52.824Z,78.14
2018-12-14T16:10:21.029Z,78.50
2018-12-14T16:12:49.190Z,78.10
2018-12-14T16:15:20.345Z,77.61
2018-12-14T16:17:47.684Z,77.95
2018-12-14T16:20:15.947Z,78.63
2018-12-14T16:22:44.296Z,78.01
2018-12-14T16:25:12.697Z,77.67
2018-12-14T16:27:41.049Z,77.74
2018-12-14T16:30:10.344Z,77.86
2018-12-14T16:32:38.539Z,78.26
2018-12-14T16:35:07.022Z,78.35
2018-12-14T16:37:35.224Z,78.48
2018-12-14T16:40:03.804Z,78.43
2018-12-14T16:42:31.947Z,78.05
2018-12-14T16:45:00.076Z,78.87
2018-12-14T16:47:28.524Z,78.71
2018-12-14T16:49:56.804Z,77.89
2018-12-14T16:52:25.004Z,78.14
2018-12-14T16:54:53.382Z,78.29
2018-12-14T16:57:24.554Z,78.27
2018-12-14T16:59:52.782Z,78.33
2018-12-14T17:02:21.157Z,78.49
2018-12-14T17:04:49.529Z,78.17
2018-12-14T17:07:17.761Z,78.43
2018-12-14T17:09:46.255Z,79.70
2018-12-14T17:12:14.692Z,79.01
2018-12-14T17:14:42.921Z,79.13
2018-12-14T17:17:11.413Z,79.51
2018-12-14T17:19:39.627Z,78.65
2018-12-14T17:22:08.747Z,79.08
2018-12-14T17:24:36.906Z,79.50
2018-12-14T17:27:05.230Z,78.98
2018-12-14T17:29:33.467Z,78.88
2018-12-14T17:32:01.590Z,79.10
2018-12-14T17:34:30.384Z,79.50
2018-12-14T17:36:58.500Z,79.79
2018-12-14T17:39:26.678Z,79.73
2018-12-14T17:41:55.522Z,78.56
2018-12-14T17:44:23.917Z,78.54
2018-12-14T17:46:52.468Z,79.66
2018-12-14T17:49:20.658Z,79.65
2018-12-14T17:51:49.402Z,79.27
2018-12-14T17:54:17.709Z,79.79
2018-12-14T17:56:45.960Z,79.61
2018-12-14T17:59:14.223Z,80.21
2018-12-14T18:01:42.530Z,80.27
2018-12-14T18:04:10.740Z,81.08
2018-12-14T18:06:39.062Z,78.92
2018-12-14T18:09:07.255Z,78.91
2018-12-14T18:11:35.481Z,79.23
2018-12-14T18:14:03.890Z,78.83
2018-12-14T18:16:32.269Z,79.00
2018-12-14T18:19:01.115Z,79.01
2018-12-14T18:21:29.303Z,79.04
2018-12-14T18:23:57.557Z,79.60
2018-12-14T18:26:25.956Z,79.82
2018-12-14T18:28:54.573Z,79.30
2018-12-14T18:31:23.507Z,79.41
2018-12-14T18:33:51.682Z,79.72
2018-12-14T18:36:19.923Z,80.76
2018-12-14T18:38:48.400Z,80.33
2018-12-14T18:41:16.876Z,81.19
2018-12-14T18:43:45.161Z,81.55
2018-12-14T18:46:13.314Z,80.59
2018-12-14T18:48:41.515Z,80.20
2018-12-14T18:51:09.680Z,80.67
2018-12-14T18:53:37.961Z,81.64
2018-12-14T18:56:06.137Z,81.33
2018-12-14T18:58:34.336Z,80.92
2018-12-14T19:01:02.540Z,81.47
2018-12-14T19:03:30.754Z,80.36
2018-12-14T19:05:59.007Z,80.37
2018-12-14T19:08:27.209Z,81.49
2018-12-14T19:10:55.412Z,81.22
2018-12-14T19:13:23.561Z,80.92
2018-12-14T19:15:51.785Z,81.02
2018-12-14T19:18:19.970Z,80.56
2018-12-14T19:20:48.481Z,81.02
2018-12-14T19:23:19.667Z,81.57
2018-12-14T19:25:47.045Z,80.82
2018-12-14T19:28:15.290Z,81.64
2018-12-14T19:30:43.565Z,81.04
2018-12-14T19:33:11.782Z,81.28
2018-12-14T19:35:40.234Z,81.46
2018-12-14T19:38:09.447Z,81.30
2018-12-14T19:40:37.694Z,81.13
2018-12-14T19:43:05.963Z,81.33
2018-12-14T19:45:34.380Z,81.11
2018-12-14T19:48:02.646Z,81.14
2018-12-14T19:50:31.185Z,80.73
2018-12-14T19:52:59.528Z,80.60
2018-12-14T19:55:27.801Z,80.59
2018-12-14T19:57:56.093Z,81.07
2018-12-14T20:00:24.403Z,80.80
2018-12-14T20:05:40.635Z,81.36
2018-12-14T20:08:08.912Z,80.97
2018-12-14T20:10:37.091Z,81.10
2018-12-14T20:13:05.365Z,81.52
2018-12-14T20:15:33.699Z,81.25
2018-12-14T20:18:01.997Z,81.66
2018-12-14T20:20:30.375Z,81.61
2018-12-14T20:22:58.620Z,80.99
2018-12-14T20:25:26.905Z,80.91
2018-12-14T20:27:55.160Z,80.84
2018-12-14T20:30:23.560Z,81.58
2018-12-14T20:32:51.733Z,81.51
2018-12-14T20:35:20.563Z,81.68
2018-12-14T20:37:49.327Z,81.18
2018-12-14T20:40:17.483Z,81.88
2018-12-14T20:42:45.679Z,81.61
2018-12-14T20:45:13.919Z,81.97
2018-12-14T20:47:45.966Z,82.24
2018-12-14T20:50:14.266Z,81.81
2018-12-14T20:52:42.573Z,81.65
2018-12-14T20:55:11.055Z,82.01
2018-12-14T20:57:39.217Z,81.40
2018-12-14T21:00:10.924Z,81.65
2018-12-14T21:02:39.075Z,81.97
2018-12-14T21:05:07.632Z,81.38
2018-12-14T21:07:35.801Z,81.62
2018-12-14T21:10:05.677Z,81.76
2018-12-14T21:12:33.957Z,81.14
2018-12-14T21:15:02.191Z,81.31
2018-12-14T21:17:30.592Z,81.75
2018-12-14T21:19:58.793Z,81.77
2018-12-14T21:22:27.333Z,81.84
2018-12-14T21:24:55.537Z,80.99
2018-12-14T21:27:24.307Z,80.42
2018-12-14T21:29:52.436Z,81.55
2018-12-14T21:32:21.560Z,81.16
2018-12-14T21:34:51.939Z,81.01
2018-12-14T21:37:20.096Z,80.67
2018-12-14T21:39:48.281Z,80.60
2018-12-14T21:42:16.442Z,81.11
2018-12-14T21:44:44.556Z,81.55
2018-12-14T21:47:12.746Z,81.40
2018-12-14T21:49:41.552Z,81.14
2018-12-14T21:52:09.710Z,81.24
2018-12-14T21:54:37.896Z,80.72
2018-12-14T21:57:06.312Z,81.04
2018-12-14T21:59:34.485Z,80.79
2018-12-14T22:02:04.106Z,80.85
2018-12-14T22:04:32.223Z,80.33
2018-12-14T22:07:00.652Z,80.22
2018-12-14T22:09:28.800Z,80.55
2018-12-14T22:11:56.942Z,80.27
2018-12-14T22:14:25.862Z,81.11
2018-12-14T22:16:54.016Z,80.97
2018-12-14T22:19:22.196Z,80.61
2018-12-14T22:21:50.366Z,81.01
2018-12-14T22:24:18.640Z,81.02
2018-12-14T22:26:47.466Z,81.48
2018-12-14T22:29:15.704Z,80.92
2018-12-14T22:31:44.014Z,81.00
2018-12-14T22:34:12.220Z,80.34
2018-12-14T22:36:40.395Z,80.63
2018-12-14T22:39:08.941Z,79.62
2018-12-14T22:41:37.080Z,80.36
2018-12-14T22:44:05.332Z,80.42
2018-12-14T22:46:33.527Z,80.37
2018-12-14T22:49:01.669Z,80.59
2018-12-14T22:51:29.774Z,80.30
2018-12-14T22:53:57.957Z,80.90
2018-12-14T22:56:26.127Z,80.37
2018-12-14T22:58:54.401Z,80.72
2018-12-14T23:01:22.569Z,80.89
2018-12-14T23:03:50.728Z,80.78
2018-12-14T23:06:18.895Z,80.37
2018-12-14T23:08:47.059Z,80.57
2018-12-14T23:11:15.219Z,80.44
2018-12-14T23:13:43.428Z,81.07
2018-12-14T23:16:11.603Z,80.62
2018-12-14T23:18:39.817Z,81.12
2018-12-14T23:21:07.991Z,80.74
2018-12-14T23:23:36.363Z,80.54
2018-12-14T23:26:04.537Z,79.95
2018-12-14T23:28:32.737Z,80.62
2018-12-14T23:31:00.931Z,80.32
2018-12-14T23:33:29.362Z,79.57
2018-12-14T23:35:57.531Z,80.05
2018-12-14T23:38:25.679Z,79.89
2018-12-14T23:40:53.830Z,80.49
2018-12-14T23:43:21.936Z,79.69
2018-12-14T23:45:50.191Z,79.81
2018-12-14T23:48:18.365Z,79.23
2018-12-14T23:50:46.888Z,79.00
2018-12-14T23:53:14.980Z,78.93
2018-12-14T23:55:43.193Z,78.88
2018-12-14T23:58:11.336Z,78.24
